sensor_id;sensor_type;location;lat;lon;timestamp;temperature;humidity
22337;DHT22;14992;50.844;4.418;2023-05-07T00:00:07;18.50;99.90
22337;DHT22;14992;50.844;4.418;2023-05-07T00:02:37;18.60;99.90
22337;DHT22;14992;50.844;4.418;2023-05-07T00:05:07;18.60;99.90
22337;DHT22;14992;50.844;4.418;2023-05-07T00:07:36;18.50;99.90
22337;DHT22;14992;50.844;4.418;2023-05-07T00:10:06;18.50;99.90
22337;DHT22;14992;50.844;4.418;2023-05-07T00:12:36;18.40;99.90
22337;DHT22;14992;50.844;4.418;2023-05-07T00:15:07;18.40;99.90
22337;DHT22;14992;50.844;4.418;2023-05-07T00:17:37;18.50;99.90
22337;DHT22;14992;50.844;4.418;2023-05-07T00:20:07;18.40;99.90
22337;DHT22;14992;50.844;4.418;2023-05-07T00:22:36;18.40;99.90
22337;DHT22;14992;50.844;4.418;2023-05-07T00:25:07;18.40;99.90
22337;DHT22;14992;50.844;4.418;2023-05-07T00:27:36;18.50;99.90
22337;DHT22;14992;50.844;4.418;2023-05-07T00:30:07;18.40;99.90
22337;DHT22;14992;50.844;4.418;2023-05-07T00:32:37;18.40;99.90
22337;DHT22;14992;50.844;4.418;2023-05-07T00:35:07;18.40;99.90
22337;DHT22;14992;50.844;4.418;2023-05-07T00:37:37;18.40;99.90
22337;DHT22;14992;50.844;4.418;2023-05-07T00:40:07;18.40;99.90
22337;DHT22;14992;50.844;4.418;2023-05-07T00:42:36;18.40;99.90
22337;DHT22;14992;50.844;4.418;2023-05-07T00:45:08;18.40;99.90
22337;DHT22;14992;50.844;4.418;2023-05-07T00:47:38;18.50;99.90
22337;DHT22;14992;50.844;4.418;2023-05-07T00:50:08;18.40;99.90
22337;DHT22;14992;50.844;4.418;2023-05-07T00:52:38;18.40;99.90
22337;DHT22;14992;50.844;4.418;2023-05-07T00:55:09;18.30;99.90
22337;DHT22;14992;50.844;4.418;2023-05-07T00:57:40;18.30;99.90
22337;DHT22;14992;50.844;4.418;2023-05-07T01:00:12;18.30;99.90
22337;DHT22;14992;50.844;4.418;2023-05-07T01:02:43;18.30;99.90
22337;DHT22;14992;50.844;4.418;2023-05-07T01:05:14;18.40;99.90
22337;DHT22;14992;50.844;4.418;2023-05-07T01:07:45;18.30;99.90
22337;DHT22;14992;50.844;4.418;2023-05-07T01:10:14;18.30;99.90
22337;DHT22;14992;50.844;4.418;2023-05-07T01:12:44;18.30;99.90
22337;DHT22;14992;50.844;4.418;2023-05-07T01:15:16;18.30;99.90
22337;DHT22;14992;50.844;4.418;2023-05-07T01:17:45;18.40;99.90
22337;DHT22;14992;50.844;4.418;2023-05-07T01:20:22;18.30;99.90
22337;DHT22;14992;50.844;4.418;2023-05-07T01:22:57;18.30;99.90
22337;DHT22;14992;50.844;4.418;2023-05-07T01:25:26;18.30;99.90
22337;DHT22;14992;50.844;4.418;2023-05-07T01:27:58;18.30;99.90
22337;DHT22;14992;50.844;4.418;2023-05-07T01:30:33;18.30;99.90
22337;DHT22;14992;50.844;4.418;2023-05-07T01:33:09;18.30;99.90
22337;DHT22;14992;50.844;4.418;2023-05-07T01:35:45;18.20;99.90
22337;DHT22;14992;50.844;4.418;2023-05-07T01:38:17;18.20;99.90
22337;DHT22;14992;50.844;4.418;2023-05-07T01:40:46;18.20;99.90
22337;DHT22;14992;50.844;4.418;2023-05-07T01:43:16;18.10;99.90
22337;DHT22;14992;50.844;4.418;2023-05-07T01:45:46;18.10;99.90
22337;DHT22;14992;50.844;4.418;2023-05-07T01:48:16;18.00;99.90
22337;DHT22;14992;50.844;4.418;2023-05-07T01:50:46;18.10;99.90
22337;DHT22;14992;50.844;4.418;2023-05-07T01:53:17;18.10;99.90
22337;DHT22;14992;50.844;4.418;2023-05-07T01:55:46;18.10;99.90
22337;DHT22;14992;50.844;4.418;2023-05-07T01:58:16;18.10;99.90
22337;DHT22;14992;50.844;4.418;2023-05-07T02:00:45;18.20;99.90
22337;DHT22;14992;50.844;4.418;2023-05-07T02:03:13;18.20;99.90
22337;DHT22;14992;50.844;4.418;2023-05-07T02:05:52;18.10;99.90
22337;DHT22;14992;50.844;4.418;2023-05-07T02:08:41;18.00;99.90
22337;DHT22;14992;50.844;4.418;2023-05-07T02:11:11;18.00;99.90
22337;DHT22;14992;50.844;4.418;2023-05-07T02:13:41;17.90;99.90
22337;DHT22;14992;50.844;4.418;2023-05-07T02:16:10;17.80;99.90
22337;DHT22;14992;50.844;4.418;2023-05-07T02:18:41;17.80;99.90
22337;DHT22;14992;50.844;4.418;2023-05-07T02:21:10;17.80;99.90
22337;DHT22;14992;50.844;4.418;2023-05-07T02:23:40;17.90;99.90
22337;DHT22;14992;50.844;4.418;2023-05-07T02:26:10;17.80;99.90
22337;DHT22;14992;50.844;4.418;2023-05-07T02:28:39;17.80;99.90
22337;DHT22;14992;50.844;4.418;2023-05-07T02:31:08;17.70;99.90
22337;DHT22;14992;50.844;4.418;2023-05-07T02:33:37;17.80;99.90
22337;DHT22;14992;50.844;4.418;2023-05-07T02:36:09;17.70;99.90
22337;DHT22;14992;50.844;4.418;2023-05-07T02:38:56;17.70;99.90
22337;DHT22;14992;50.844;4.418;2023-05-07T02:41:25;17.60;99.90
22337;DHT22;14992;50.844;4.418;2023-05-07T02:43:55;17.50;99.90
22337;DHT22;14992;50.844;4.418;2023-05-07T02:46:24;17.50;99.90
22337;DHT22;14992;50.844;4.418;2023-05-07T02:49:00;17.50;99.90
22337;DHT22;14992;50.844;4.418;2023-05-07T02:51:30;17.50;99.90
22337;DHT22;14992;50.844;4.418;2023-05-07T02:54:04;17.50;99.90
22337;DHT22;14992;50.844;4.418;2023-05-07T02:56:33;17.50;99.90
22337;DHT22;14992;50.844;4.418;2023-05-07T02:59:02;17.50;99.90
22337;DHT22;14992;50.844;4.418;2023-05-07T03:01:35;17.40;99.90
22337;DHT22;14992;50.844;4.418;2023-05-07T03:04:08;17.40;99.90
22337;DHT22;14992;50.844;4.418;2023-05-07T03:06:37;17.40;99.90
22337;DHT22;14992;50.844;4.418;2023-05-07T03:09:07;17.50;99.90
22337;DHT22;14992;50.844;4.418;2023-05-07T03:11:37;17.50;99.90
22337;DHT22;14992;50.844;4.418;2023-05-07T03:14:06;17.60;99.90
22337;DHT22;14992;50.844;4.418;2023-05-07T03:16:35;17.70;99.90
22337;DHT22;14992;50.844;4.418;2023-05-07T03:19:04;17.80;99.90
22337;DHT22;14992;50.844;4.418;2023-05-07T03:21:33;17.80;99.90
22337;DHT22;14992;50.844;4.418;2023-05-07T03:24:02;17.80;99.90
22337;DHT22;14992;50.844;4.418;2023-05-07T03:26:32;17.80;99.90
22337;DHT22;14992;50.844;4.418;2023-05-07T03:29:02;17.80;99.90
22337;DHT22;14992;50.844;4.418;2023-05-07T03:31:31;17.80;99.90
22337;DHT22;14992;50.844;4.418;2023-05-07T03:34:01;17.80;99.90
22337;DHT22;14992;50.844;4.418;2023-05-07T03:36:30;17.90;99.90
22337;DHT22;14992;50.844;4.418;2023-05-07T03:38:59;17.90;99.90
22337;DHT22;14992;50.844;4.418;2023-05-07T03:41:37;17.90;99.90
22337;DHT22;14992;50.844;4.418;2023-05-07T03:44:06;17.90;99.90
22337;DHT22;14992;50.844;4.418;2023-05-07T03:46:36;17.90;99.90
22337;DHT22;14992;50.844;4.418;2023-05-07T03:49:05;17.90;99.90
22337;DHT22;14992;50.844;4.418;2023-05-07T03:51:34;17.90;99.90
22337;DHT22;14992;50.844;4.418;2023-05-07T03:54:05;18.00;99.90
22337;DHT22;14992;50.844;4.418;2023-05-07T03:56:34;18.00;99.90
22337;DHT22;14992;50.844;4.418;2023-05-07T03:59:05;17.90;99.90
22337;DHT22;14992;50.844;4.418;2023-05-07T04:01:34;17.90;99.90
22337;DHT22;14992;50.844;4.418;2023-05-07T04:04:03;17.90;99.90
22337;DHT22;14992;50.844;4.418;2023-05-07T04:06:35;17.80;99.90
22337;DHT22;14992;50.844;4.418;2023-05-07T04:09:04;17.80;99.90
22337;DHT22;14992;50.844;4.418;2023-05-07T04:11:36;17.90;99.90
22337;DHT22;14992;50.844;4.418;2023-05-07T04:14:07;17.80;99.90
22337;DHT22;14992;50.844;4.418;2023-05-07T04:16:36;17.70;99.90
22337;DHT22;14992;50.844;4.418;2023-05-07T04:19:07;17.80;99.90
22337;DHT22;14992;50.844;4.418;2023-05-07T04:21:37;17.80;99.90
22337;DHT22;14992;50.844;4.418;2023-05-07T04:24:07;17.80;99.90
22337;DHT22;14992;50.844;4.418;2023-05-07T04:26:36;17.80;99.90
22337;DHT22;14992;50.844;4.418;2023-05-07T04:29:05;17.90;99.90
22337;DHT22;14992;50.844;4.418;2023-05-07T04:31:35;17.90;99.90
22337;DHT22;14992;50.844;4.418;2023-05-07T04:34:04;17.90;99.90
22337;DHT22;14992;50.844;4.418;2023-05-07T04:36:33;17.90;99.90
22337;DHT22;14992;50.844;4.418;2023-05-07T04:39:09;18.00;99.90
22337;DHT22;14992;50.844;4.418;2023-05-07T04:41:40;18.00;99.90
22337;DHT22;14992;50.844;4.418;2023-05-07T04:44:10;18.10;99.90
22337;DHT22;14992;50.844;4.418;2023-05-07T04:46:43;18.10;99.90
22337;DHT22;14992;50.844;4.418;2023-05-07T04:49:12;18.00;99.90
22337;DHT22;14992;50.844;4.418;2023-05-07T04:51:41;18.00;99.90
22337;DHT22;14992;50.844;4.418;2023-05-07T04:54:12;18.00;99.90
22337;DHT22;14992;50.844;4.418;2023-05-07T04:56:41;18.10;99.90
22337;DHT22;14992;50.844;4.418;2023-05-07T04:59:10;18.10;99.90
22337;DHT22;14992;50.844;4.418;2023-05-07T05:01:40;18.20;99.90
22337;DHT22;14992;50.844;4.418;2023-05-07T05:04:09;18.20;99.90
22337;DHT22;14992;50.844;4.418;2023-05-07T05:06:39;18.10;99.90
22337;DHT22;14992;50.844;4.418;2023-05-07T05:09:10;18.20;99.90
22337;DHT22;14992;50.844;4.418;2023-05-07T05:11:41;18.20;99.90
22337;DHT22;14992;50.844;4.418;2023-05-07T05:14:10;18.30;99.90
22337;DHT22;14992;50.844;4.418;2023-05-07T05:16:39;18.30;99.90
22337;DHT22;14992;50.844;4.418;2023-05-07T05:19:09;18.40;99.90
22337;DHT22;14992;50.844;4.418;2023-05-07T05:21:39;18.50;99.90
22337;DHT22;14992;50.844;4.418;2023-05-07T05:24:09;18.70;99.90
22337;DHT22;14992;50.844;4.418;2023-05-07T05:26:39;18.80;99.90
22337;DHT22;14992;50.844;4.418;2023-05-07T05:29:08;18.90;99.90
22337;DHT22;14992;50.844;4.418;2023-05-07T05:31:40;19.00;99.90
22337;DHT22;14992;50.844;4.418;2023-05-07T05:34:12;19.00;99.90
22337;DHT22;14992;50.844;4.418;2023-05-07T05:36:42;19.10;99.90
22337;DHT22;14992;50.844;4.418;2023-05-07T05:39:11;19.00;99.90
22337;DHT22;14992;50.844;4.418;2023-05-07T05:41:40;19.00;99.90
22337;DHT22;14992;50.844;4.418;2023-05-07T05:44:09;19.00;99.90
22337;DHT22;14992;50.844;4.418;2023-05-07T05:46:38;18.90;99.90
22337;DHT22;14992;50.844;4.418;2023-05-07T05:49:08;19.00;99.90
22337;DHT22;14992;50.844;4.418;2023-05-07T05:51:40;18.90;99.90
22337;DHT22;14992;50.844;4.418;2023-05-07T05:54:09;19.00;99.90
22337;DHT22;14992;50.844;4.418;2023-05-07T05:56:38;19.10;99.90
22337;DHT22;14992;50.844;4.418;2023-05-07T05:59:07;19.20;99.90
22337;DHT22;14992;50.844;4.418;2023-05-07T06:01:37;19.20;99.90
22337;DHT22;14992;50.844;4.418;2023-05-07T06:04:07;19.20;99.90
22337;DHT22;14992;50.844;4.418;2023-05-07T06:06:35;19.20;99.90
22337;DHT22;14992;50.844;4.418;2023-05-07T06:09:06;19.20;99.90
22337;DHT22;14992;50.844;4.418;2023-05-07T06:11:40;19.00;99.90
22337;DHT22;14992;50.844;4.418;2023-05-07T06:14:10;18.90;99.90
22337;DHT22;14992;50.844;4.418;2023-05-07T06:16:40;19.00;99.90
22337;DHT22;14992;50.844;4.418;2023-05-07T06:19:09;19.00;99.90
22337;DHT22;14992;50.844;4.418;2023-05-07T06:21:39;18.90;99.90
22337;DHT22;14992;50.844;4.418;2023-05-07T06:24:10;18.80;99.90
22337;DHT22;14992;50.844;4.418;2023-05-07T06:26:39;18.80;99.90
22337;DHT22;14992;50.844;4.418;2023-05-07T06:29:08;18.90;99.90
22337;DHT22;14992;50.844;4.418;2023-05-07T06:31:40;19.00;99.90
22337;DHT22;14992;50.844;4.418;2023-05-07T06:34:10;19.00;99.90
22337;DHT22;14992;50.844;4.418;2023-05-07T06:36:42;19.10;99.90
22337;DHT22;14992;50.844;4.418;2023-05-07T06:39:21;18.80;99.90
22337;DHT22;14992;50.844;4.418;2023-05-07T06:41:52;18.70;99.90
22337;DHT22;14992;50.844;4.418;2023-05-07T06:44:28;18.70;99.90
22337;DHT22;14992;50.844;4.418;2023-05-07T06:47:09;18.80;99.90
22337;DHT22;14992;50.844;4.418;2023-05-07T06:49:39;18.90;99.90
22337;DHT22;14992;50.844;4.418;2023-05-07T06:52:09;18.80;99.90
22337;DHT22;14992;50.844;4.418;2023-05-07T06:54:39;18.80;99.90
22337;DHT22;14992;50.844;4.418;2023-05-07T06:57:09;18.80;99.90
22337;DHT22;14992;50.844;4.418;2023-05-07T06:59:38;18.80;99.90
22337;DHT22;14992;50.844;4.418;2023-05-07T07:02:07;18.70;99.90
22337;DHT22;14992;50.844;4.418;2023-05-07T07:04:36;18.70;99.90
22337;DHT22;14992;50.844;4.418;2023-05-07T07:07:09;18.60;99.90
22337;DHT22;14992;50.844;4.418;2023-05-07T07:09:41;18.60;99.90
22337;DHT22;14992;50.844;4.418;2023-05-07T07:12:11;18.60;99.90
22337;DHT22;14992;50.844;4.418;2023-05-07T07:14:41;18.60;99.90
22337;DHT22;14992;50.844;4.418;2023-05-07T07:17:10;18.60;99.90
22337;DHT22;14992;50.844;4.418;2023-05-07T07:19:38;18.60;99.90
22337;DHT22;14992;50.844;4.418;2023-05-07T07:22:08;18.70;99.90
22337;DHT22;14992;50.844;4.418;2023-05-07T07:24:38;18.70;99.90
22337;DHT22;14992;50.844;4.418;2023-05-07T07:27:11;18.80;99.90
22337;DHT22;14992;50.844;4.418;2023-05-07T07:29:40;18.60;99.90
22337;DHT22;14992;50.844;4.418;2023-05-07T07:32:09;18.70;99.90
22337;DHT22;14992;50.844;4.418;2023-05-07T07:34:38;18.60;99.90
22337;DHT22;14992;50.844;4.418;2023-05-07T07:37:07;18.70;99.90
22337;DHT22;14992;50.844;4.418;2023-05-07T07:39:37;18.60;99.90
22337;DHT22;14992;50.844;4.418;2023-05-07T07:42:08;18.50;99.90
22337;DHT22;14992;50.844;4.418;2023-05-07T07:44:39;18.60;99.90
22337;DHT22;14992;50.844;4.418;2023-05-07T07:47:10;18.50;99.90
22337;DHT22;14992;50.844;4.418;2023-05-07T07:49:41;18.60;99.90
22337;DHT22;14992;50.844;4.418;2023-05-07T07:52:11;18.80;99.90
22337;DHT22;14992;50.844;4.418;2023-05-07T07:54:40;18.90;99.90
22337;DHT22;14992;50.844;4.418;2023-05-07T07:57:10;18.90;99.90
22337;DHT22;14992;50.844;4.418;2023-05-07T07:59:40;19.00;99.90
22337;DHT22;14992;50.844;4.418;2023-05-07T08:02:13;19.20;99.90
22337;DHT22;14992;50.844;4.418;2023-05-07T08:04:42;19.20;99.90
22337;DHT22;14992;50.844;4.418;2023-05-07T08:07:12;19.20;99.90
22337;DHT22;14992;50.844;4.418;2023-05-07T08:09:44;19.10;99.90
22337;DHT22;14992;50.844;4.418;2023-05-07T08:12:13;19.00;99.90
22337;DHT22;14992;50.844;4.418;2023-05-07T08:14:44;18.90;99.90
22337;DHT22;14992;50.844;4.418;2023-05-07T08:17:13;18.80;99.90
22337;DHT22;14992;50.844;4.418;2023-05-07T08:19:44;18.70;99.90
22337;DHT22;14992;50.844;4.418;2023-05-07T08:22:14;18.70;99.90
22337;DHT22;14992;50.844;4.418;2023-05-07T08:24:45;18.50;99.90
22337;DHT22;14992;50.844;4.418;2023-05-07T08:27:14;18.40;99.90
22337;DHT22;14992;50.844;4.418;2023-05-07T08:29:44;18.30;99.90
22337;DHT22;14992;50.844;4.418;2023-05-07T08:32:16;18.40;99.90
22337;DHT22;14992;50.844;4.418;2023-05-07T08:34:45;18.20;99.90
22337;DHT22;14992;50.844;4.418;2023-05-07T08:37:14;18.00;99.90
22337;DHT22;14992;50.844;4.418;2023-05-07T08:39:43;18.00;99.90
22337;DHT22;14992;50.844;4.418;2023-05-07T08:42:18;18.20;99.90
22337;DHT22;14992;50.844;4.418;2023-05-07T08:44:51;18.40;99.90
22337;DHT22;14992;50.844;4.418;2023-05-07T08:47:28;18.40;99.90
22337;DHT22;14992;50.844;4.418;2023-05-07T08:50:01;18.50;99.90
22337;DHT22;14992;50.844;4.418;2023-05-07T08:52:30;18.50;99.90
22337;DHT22;14992;50.844;4.418;2023-05-07T08:55:01;18.50;99.90
22337;DHT22;14992;50.844;4.418;2023-05-07T08:57:31;18.50;99.90
22337;DHT22;14992;50.844;4.418;2023-05-07T09:00:02;18.60;99.90
22337;DHT22;14992;50.844;4.418;2023-05-07T09:02:31;18.60;99.90
22337;DHT22;14992;50.844;4.418;2023-05-07T09:05:00;18.60;99.90
22337;DHT22;14992;50.844;4.418;2023-05-07T09:07:30;18.80;99.90
22337;DHT22;14992;50.844;4.418;2023-05-07T09:10:01;18.90;99.90
22337;DHT22;14992;50.844;4.418;2023-05-07T09:12:32;19.00;99.90
22337;DHT22;14992;50.844;4.418;2023-05-07T09:15:07;19.00;99.90
22337;DHT22;14992;50.844;4.418;2023-05-07T09:17:37;19.20;99.90
22337;DHT22;14992;50.844;4.418;2023-05-07T09:20:07;19.10;99.90
22337;DHT22;14992;50.844;4.418;2023-05-07T09:22:39;19.20;99.90
22337;DHT22;14992;50.844;4.418;2023-05-07T09:25:11;19.30;99.90
22337;DHT22;14992;50.844;4.418;2023-05-07T09:27:42;19.40;99.90
22337;DHT22;14992;50.844;4.418;2023-05-07T09:30:13;19.60;99.90
22337;DHT22;14992;50.844;4.418;2023-05-07T09:32:42;19.60;99.90
22337;DHT22;14992;50.844;4.418;2023-05-07T09:35:16;19.70;99.90
22337;DHT22;14992;50.844;4.418;2023-05-07T09:37:50;19.80;99.90
22337;DHT22;14992;50.844;4.418;2023-05-07T09:40:24;19.90;99.90
22337;DHT22;14992;50.844;4.418;2023-05-07T09:42:54;20.00;99.90
22337;DHT22;14992;50.844;4.418;2023-05-07T09:45:26;20.00;99.90
22337;DHT22;14992;50.844;4.418;2023-05-07T09:47:58;20.10;99.90
22337;DHT22;14992;50.844;4.418;2023-05-07T09:50:32;20.00;99.90
22337;DHT22;14992;50.844;4.418;2023-05-07T09:53:04;20.10;99.90
22337;DHT22;14992;50.844;4.418;2023-05-07T09:55:34;20.30;99.90
22337;DHT22;14992;50.844;4.418;2023-05-07T09:58:04;20.30;99.90
22337;DHT22;14992;50.844;4.418;2023-05-07T10:00:40;20.30;99.90
22337;DHT22;14992;50.844;4.418;2023-05-07T10:03:13;20.30;99.90
22337;DHT22;14992;50.844;4.418;2023-05-07T10:05:51;20.20;99.90
22337;DHT22;14992;50.844;4.418;2023-05-07T10:08:22;20.30;99.90
22337;DHT22;14992;50.844;4.418;2023-05-07T10:10:55;20.40;99.90
22337;DHT22;14992;50.844;4.418;2023-05-07T10:13:27;20.50;99.90
22337;DHT22;14992;50.844;4.418;2023-05-07T10:16:00;20.60;99.90
22337;DHT22;14992;50.844;4.418;2023-05-07T10:18:34;20.60;99.90
22337;DHT22;14992;50.844;4.418;2023-05-07T10:21:15;20.60;99.90
22337;DHT22;14992;50.844;4.418;2023-05-07T10:23:48;20.60;99.90
22337;DHT22;14992;50.844;4.418;2023-05-07T10:26:20;20.60;99.90
22337;DHT22;14992;50.844;4.418;2023-05-07T10:28:54;20.70;99.90
22337;DHT22;14992;50.844;4.418;2023-05-07T10:31:43;20.50;99.90
22337;DHT22;14992;50.844;4.418;2023-05-07T10:34:20;20.60;99.90
22337;DHT22;14992;50.844;4.418;2023-05-07T10:36:50;20.70;99.90
22337;DHT22;14992;50.844;4.418;2023-05-07T10:39:21;20.80;99.90
22337;DHT22;14992;50.844;4.418;2023-05-07T10:41:50;20.90;99.90
22337;DHT22;14992;50.844;4.418;2023-05-07T10:44:26;20.80;99.90
22337;DHT22;14992;50.844;4.418;2023-05-07T10:47:09;20.80;99.90
22337;DHT22;14992;50.844;4.418;2023-05-07T10:56:26;20.50;99.90
22337;DHT22;14992;50.844;4.418;2023-05-07T10:59:34;20.70;99.90
22337;DHT22;14992;50.844;4.418;2023-05-07T11:02:22;20.70;99.90
22337;DHT22;14992;50.844;4.418;2023-05-07T11:05:19;20.80;99.90
22337;DHT22;14992;50.844;4.418;2023-05-07T11:08:01;21.00;99.90
22337;DHT22;14992;50.844;4.418;2023-05-07T11:10:54;20.90;99.90
22337;DHT22;14992;50.844;4.418;2023-05-07T11:13:49;20.90;99.90
22337;DHT22;14992;50.844;4.418;2023-05-07T11:16:28;21.10;99.90
22337;DHT22;14992;50.844;4.418;2023-05-07T11:19:11;21.10;99.90
22337;DHT22;14992;50.844;4.418;2023-05-07T11:21:44;21.20;99.90
22337;DHT22;14992;50.844;4.418;2023-05-07T11:24:39;21.20;99.90
22337;DHT22;14992;50.844;4.418;2023-05-07T11:27:08;21.40;99.90
22337;DHT22;14992;50.844;4.418;2023-05-07T11:29:38;21.50;99.90
22337;DHT22;14992;50.844;4.418;2023-05-07T11:32:10;21.40;99.90
22337;DHT22;14992;50.844;4.418;2023-05-07T11:34:51;21.60;99.90
22337;DHT22;14992;50.844;4.418;2023-05-07T11:37:21;21.60;99.90
22337;DHT22;14992;50.844;4.418;2023-05-07T11:40:03;21.70;99.90
22337;DHT22;14992;50.844;4.418;2023-05-07T11:42:34;21.30;99.90
22337;DHT22;14992;50.844;4.418;2023-05-07T11:45:04;21.40;99.90
22337;DHT22;14992;50.844;4.418;2023-05-07T11:47:34;21.60;99.90
22337;DHT22;14992;50.844;4.418;2023-05-07T11:50:06;21.70;99.90
22337;DHT22;14992;50.844;4.418;2023-05-07T11:52:36;21.60;99.90
22337;DHT22;14992;50.844;4.418;2023-05-07T11:55:07;21.80;99.90
22337;DHT22;14992;50.844;4.418;2023-05-07T11:57:37;21.80;99.90
22337;DHT22;14992;50.844;4.418;2023-05-07T12:00:07;21.90;99.90
22337;DHT22;14992;50.844;4.418;2023-05-07T12:02:39;21.80;99.90
22337;DHT22;14992;50.844;4.418;2023-05-07T12:05:11;21.90;99.90
22337;DHT22;14992;50.844;4.418;2023-05-07T12:07:41;22.20;99.90
22337;DHT22;14992;50.844;4.418;2023-05-07T12:10:11;22.40;99.90
22337;DHT22;14992;50.844;4.418;2023-05-07T12:12:41;22.60;99.90
22337;DHT22;14992;50.844;4.418;2023-05-07T12:15:15;22.70;99.90
22337;DHT22;14992;50.844;4.418;2023-05-07T12:17:45;22.80;99.90
22337;DHT22;14992;50.844;4.418;2023-05-07T12:20:15;22.70;99.90
22337;DHT22;14992;50.844;4.418;2023-05-07T12:22:45;22.70;99.90
22337;DHT22;14992;50.844;4.418;2023-05-07T12:25:19;22.50;99.90
22337;DHT22;14992;50.844;4.418;2023-05-07T12:27:52;22.40;99.90
22337;DHT22;14992;50.844;4.418;2023-05-07T12:30:21;22.60;99.90
22337;DHT22;14992;50.844;4.418;2023-05-07T12:32:52;22.70;99.90
22337;DHT22;14992;50.844;4.418;2023-05-07T12:35:28;22.70;99.90
22337;DHT22;14992;50.844;4.418;2023-05-07T12:37:58;22.70;99.90
22337;DHT22;14992;50.844;4.418;2023-05-07T12:40:36;22.60;99.90
22337;DHT22;14992;50.844;4.418;2023-05-07T12:43:05;22.70;99.90
22337;DHT22;14992;50.844;4.418;2023-05-07T12:45:37;22.80;99.90
22337;DHT22;14992;50.844;4.418;2023-05-07T12:48:09;22.80;99.90
22337;DHT22;14992;50.844;4.418;2023-05-07T12:50:40;22.80;99.90
22337;DHT22;14992;50.844;4.418;2023-05-07T12:53:13;22.80;99.90
22337;DHT22;14992;50.844;4.418;2023-05-07T12:55:45;22.90;99.90
22337;DHT22;14992;50.844;4.418;2023-05-07T12:58:18;22.90;99.90
22337;DHT22;14992;50.844;4.418;2023-05-07T13:00:49;22.80;99.90
22337;DHT22;14992;50.844;4.418;2023-05-07T13:03:22;22.80;99.90
22337;DHT22;14992;50.844;4.418;2023-05-07T13:05:57;22.80;99.90
22337;DHT22;14992;50.844;4.418;2023-05-07T13:08:31;22.60;99.90
22337;DHT22;14992;50.844;4.418;2023-05-07T13:11:01;22.60;99.90
22337;DHT22;14992;50.844;4.418;2023-05-07T13:13:31;22.70;99.90
22337;DHT22;14992;50.844;4.418;2023-05-07T13:16:01;22.60;99.90
22337;DHT22;14992;50.844;4.418;2023-05-07T13:18:30;22.70;99.90
22337;DHT22;14992;50.844;4.418;2023-05-07T13:21:01;22.80;99.90
22337;DHT22;14992;50.844;4.418;2023-05-07T13:23:30;22.90;99.90
22337;DHT22;14992;50.844;4.418;2023-05-07T13:25:59;22.70;99.90
22337;DHT22;14992;50.844;4.418;2023-05-07T13:28:37;22.60;99.90
22337;DHT22;14992;50.844;4.418;2023-05-07T13:31:07;22.40;99.90
22337;DHT22;14992;50.844;4.418;2023-05-07T13:33:36;22.40;99.90
22337;DHT22;14992;50.844;4.418;2023-05-07T13:36:07;22.60;99.90
22337;DHT22;14992;50.844;4.418;2023-05-07T13:38:36;22.50;99.90
22337;DHT22;14992;50.844;4.418;2023-05-07T13:41:05;22.40;99.90
22337;DHT22;14992;50.844;4.418;2023-05-07T13:43:36;22.40;99.90
22337;DHT22;14992;50.844;4.418;2023-05-07T13:46:05;22.40;99.90
22337;DHT22;14992;50.844;4.418;2023-05-07T13:48:34;22.40;99.90
22337;DHT22;14992;50.844;4.418;2023-05-07T13:51:03;22.30;99.90
22337;DHT22;14992;50.844;4.418;2023-05-07T13:53:34;22.30;99.90
22337;DHT22;14992;50.844;4.418;2023-05-07T13:56:03;22.40;99.90
22337;DHT22;14992;50.844;4.418;2023-05-07T13:58:33;22.30;99.90
22337;DHT22;14992;50.844;4.418;2023-05-07T14:01:14;22.20;99.90
22337;DHT22;14992;50.844;4.418;2023-05-07T14:03:44;22.30;99.90
22337;DHT22;14992;50.844;4.418;2023-05-07T14:06:13;22.40;99.90
22337;DHT22;14992;50.844;4.418;2023-05-07T14:08:43;22.30;99.90
22337;DHT22;14992;50.844;4.418;2023-05-07T14:11:12;22.10;99.90
22337;DHT22;14992;50.844;4.418;2023-05-07T14:13:41;22.10;99.90
22337;DHT22;14992;50.844;4.418;2023-05-07T14:16:10;22.20;99.90
22337;DHT22;14992;50.844;4.418;2023-05-07T14:18:39;22.20;99.90
22337;DHT22;14992;50.844;4.418;2023-05-07T14:21:08;22.20;99.90
22337;DHT22;14992;50.844;4.418;2023-05-07T14:23:37;22.30;99.90
22337;DHT22;14992;50.844;4.418;2023-05-07T14:26:07;22.10;99.90
22337;DHT22;14992;50.844;4.418;2023-05-07T14:28:36;22.00;99.90
22337;DHT22;14992;50.844;4.418;2023-05-07T14:31:07;21.90;99.90
22337;DHT22;14992;50.844;4.418;2023-05-07T14:33:36;21.90;99.90
22337;DHT22;14992;50.844;4.418;2023-05-07T14:36:08;22.00;99.90
22337;DHT22;14992;50.844;4.418;2023-05-07T14:38:37;22.00;99.90
22337;DHT22;14992;50.844;4.418;2023-05-07T14:41:07;21.80;99.90
22337;DHT22;14992;50.844;4.418;2023-05-07T14:43:36;21.90;99.90
22337;DHT22;14992;50.844;4.418;2023-05-07T14:46:05;21.90;99.90
22337;DHT22;14992;50.844;4.418;2023-05-07T14:48:35;21.90;99.90
22337;DHT22;14992;50.844;4.418;2023-05-07T14:51:04;21.90;99.90
22337;DHT22;14992;50.844;4.418;2023-05-07T14:53:33;22.00;99.90
22337;DHT22;14992;50.844;4.418;2023-05-07T14:56:03;22.00;99.90
22337;DHT22;14992;50.844;4.418;2023-05-07T14:58:34;22.10;99.90
22337;DHT22;14992;50.844;4.418;2023-05-07T15:01:03;22.10;99.90
22337;DHT22;14992;50.844;4.418;2023-05-07T15:03:34;22.10;99.90
22337;DHT22;14992;50.844;4.418;2023-05-07T15:06:03;22.10;99.90
22337;DHT22;14992;50.844;4.418;2023-05-07T15:08:32;22.00;99.90
22337;DHT22;14992;50.844;4.418;2023-05-07T15:11:01;22.00;99.90
22337;DHT22;14992;50.844;4.418;2023-05-07T15:13:30;22.10;99.90
22337;DHT22;14992;50.844;4.418;2023-05-07T15:16:00;22.20;99.90
22337;DHT22;14992;50.844;4.418;2023-05-07T15:18:29;22.00;99.90
22337;DHT22;14992;50.844;4.418;2023-05-07T15:20:58;21.90;99.90
22337;DHT22;14992;50.844;4.418;2023-05-07T15:23:27;21.80;99.90
22337;DHT22;14992;50.844;4.418;2023-05-07T15:25:57;21.80;99.90
22337;DHT22;14992;50.844;4.418;2023-05-07T15:28:26;21.70;99.90
22337;DHT22;14992;50.844;4.418;2023-05-07T15:30:57;21.60;99.90
22337;DHT22;14992;50.844;4.418;2023-05-07T15:33:27;21.40;99.90
22337;DHT22;14992;50.844;4.418;2023-05-07T15:35:56;21.10;99.90
22337;DHT22;14992;50.844;4.418;2023-05-07T15:38:26;21.10;99.90
22337;DHT22;14992;50.844;4.418;2023-05-07T15:40:55;21.10;99.90
22337;DHT22;14992;50.844;4.418;2023-05-07T15:43:24;21.00;99.90
22337;DHT22;14992;50.844;4.418;2023-05-07T15:45:53;21.20;99.90
22337;DHT22;14992;50.844;4.418;2023-05-07T15:48:22;21.30;99.90
22337;DHT22;14992;50.844;4.418;2023-05-07T15:50:53;21.30;99.90
22337;DHT22;14992;50.844;4.418;2023-05-07T15:53:22;21.40;99.90
22337;DHT22;14992;50.844;4.418;2023-05-07T15:55:51;21.30;99.90
22337;DHT22;14992;50.844;4.418;2023-05-07T15:58:20;21.40;99.90
22337;DHT22;14992;50.844;4.418;2023-05-07T16:00:49;21.40;99.90